Time;durP1;ratioP1;P1;durP2;ratioP2;P2;SDS_P1;SDS_P2;PMS_P1;PMS_P2;Temp;Humidity;BMP_temperature;BMP_pressure;BME280_temperature;BME280_humidity;BME280_pressure;Samples;Min_cycle;Max_cycle;Signal;HPM_P1;HPM_P2
2021/12/19 00:00:53;;;;;;;10.80;9.00;;;;;;;2.79;90.41;100233.38;5115552;28;20950;-69
2021/12/19 00:03:36;;;;;;;11.53;10.07;;;;;;;2.77;89.95;100230.88;5116644;28;20436;-69
2021/12/19 00:08:50;;;;;;;9.13;8.33;;;;;;;2.69;89.70;100228.06;5116970;28;20399;-69
2021/12/19 00:11:18;;;;;;;14.40;10.93;;;;;;;2.52;89.39;100214.69;5116788;28;20518;-71
2021/12/19 00:13:45;;;;;;;13.73;12.33;;;;;;;2.44;89.59;100217.94;5116667;28;20510;-71
2021/12/19 00:16:12;;;;;;;18.93;14.23;;;;;;;2.33;89.71;100215.38;5116883;28;20444;-70
2021/12/19 00:18:42;;;;;;;15.73;13.80;;;;;;;2.21;90.01;100216.38;5116343;28;20467;-70
2021/12/19 00:21:10;;;;;;;16.27;12.60;;;;;;;2.23;90.52;100217.09;5116699;28;20459;-71
2021/12/19 00:23:37;;;;;;;14.97;11.90;;;;;;;2.18;90.33;100211.41;5116283;28;20435;-71
2021/12/19 00:26:06;;;;;;;13.93;12.53;;;;;;;2.18;90.81;100215.81;5116145;28;20501;-70
2021/12/19 00:28:33;;;;;;;13.73;12.30;;;;;;;2.19;91.22;100201.72;5116988;28;20440;-70
2021/12/19 00:30:59;;;;;;;11.50;10.30;;;;;;;2.19;90.48;100199.97;5116146;28;20792;-71
2021/12/19 00:33:26;;;;;;;13.33;11.77;;;;;;;2.14;90.54;100199.50;5116293;28;20440;-70
2021/12/19 00:35:53;;;;;;;12.27;11.07;;;;;;;1.98;91.36;100193.84;5115644;28;20440;-70
2021/12/19 00:38:20;;;;;;;13.30;11.13;;;;;;;1.83;91.58;100189.03;5116460;28;20525;-70
2021/12/19 00:40:47;;;;;;;13.10;10.47;;;;;;;1.80;92.74;100184.84;5115635;28;20431;-69
2021/12/19 00:43:25;;;;;;;12.13;10.83;;;;;;;1.90;92.05;100190.19;5115887;28;20485;-69
2021/12/19 00:45:54;;;;;;;15.43;11.53;;;;;;;1.93;91.83;100188.16;5116731;28;20593;-69
2021/12/19 00:48:20;;;;;;;17.63;10.77;;;;;;;2.02;92.83;100182.19;5115481;28;20471;-70
2021/12/19 00:50:47;;;;;;;13.87;10.53;;;;;;;2.09;92.44;100170.25;5115788;28;20443;-69
2021/12/19 00:53:14;;;;;;;11.33;10.20;;;;;;;2.17;92.76;100173.03;5116557;28;20863;-69
2021/12/19 00:55:41;;;;;;;14.63;10.93;;;;;;;2.24;91.83;100178.63;5115620;28;20485;-69
2021/12/19 00:58:07;;;;;;;14.67;10.87;;;;;;;2.22;91.28;100178.75;5116085;28;20475;-69
2021/12/19 01:00:36;;;;;;;12.03;10.47;;;;;;;2.22;90.74;100176.13;5115612;28;20428;-69
2021/12/19 01:03:03;;;;;;;11.50;10.30;;;;;;;2.18;90.07;100185.19;5115465;28;20444;-69
2021/12/19 01:05:34;;;;;;;10.47;8.83;;;;;;;2.10;89.86;100176.28;5115493;28;20489;-69
2021/12/19 01:08:01;;;;;;;7.90;7.20;;;;;;;2.08;89.92;100173.78;5116333;28;20431;-69
2021/12/19 01:10:28;;;;;;;9.00;6.40;;;;;;;1.83;90.22;100166.28;5115777;28;20505;-69
2021/12/19 01:12:54;;;;;;;6.53;5.97;;;;;;;1.65;89.76;100165.16;5114723;28;20497;-69
2021/12/19 01:15:22;;;;;;;7.33;5.77;;;;;;;1.58;89.96;100158.75;5116067;28;20428;-70
2021/12/19 01:17:51;;;;;;;6.20;5.80;;;;;;;1.57;90.46;100157.09;5114875;28;20527;-70
2021/12/19 01:20:21;;;;;;;6.73;6.07;;;;;;;1.47;90.43;100156.16;5114906;28;20436;-70
2021/12/19 01:22:49;;;;;;;6.03;5.63;;;;;;;1.53;90.40;100158.28;5115160;28;20436;-70
2021/12/19 01:25:16;;;;;;;7.20;6.63;;;;;;;1.66;90.71;100155.50;5114977;28;20488;-70
2021/12/19 01:27:42;;;;;;;8.13;7.33;;;;;;;1.64;90.26;100163.50;5114606;28;20474;-70
2021/12/19 01:30:11;;;;;;;8.10;7.40;;;;;;;1.64;90.83;100147.78;5112421;28;20449;-70
2021/12/19 01:32:38;;;;;;;7.43;6.73;;;;;;;1.71;91.19;100148.94;5100204;28;20449;-70
2021/12/19 01:35:08;;;;;;;9.00;7.47;;;;;;;1.77;90.88;100142.38;5095061;28;20503;-70
2021/12/19 01:37:35;;;;;;;11.30;7.83;;;;;;;1.85;90.90;100135.56;5094441;28;20565;-70
2021/12/19 01:40:02;;;;;;;9.53;7.70;;;;;;;1.91;90.44;100132.44;5095209;28;20473;-70
2021/12/19 01:42:31;;;;;;;9.03;7.53;;;;;;;2.01;89.73;100130.75;5094382;28;20437;-71
2021/12/19 01:44:58;;;;;;;9.57;7.03;;;;;;;2.07;89.69;100130.22;5095144;28;20441;-70
2021/12/19 01:47:24;;;;;;;8.67;7.87;;;;;;;2.13;89.02;100131.50;5094297;28;20506;-70
2021/12/19 01:49:51;;;;;;;9.37;7.67;;;;;;;2.15;88.45;100138.28;5094755;28;20490;-71
2021/12/19 01:52:20;;;;;;;13.60;10.53;;;;;;;2.12;88.14;100137.72;5094137;28;20437;-71
2021/12/19 01:54:47;;;;;;;18.83;12.03;;;;;;;2.04;88.41;100130.47;5094086;28;20850;-71
2021/12/19 01:57:14;;;;;;;18.53;12.07;;;;;;;2.07;88.44;100127.59;5094888;28;20433;-71
2021/12/19 01:59:40;;;;;;;18.17;12.27;;;;;;;2.08;88.08;100125.81;5093647;28;20477;-71
2021/12/19 02:02:07;;;;;;;17.63;11.67;;;;;;;2.07;88.15;100119.75;5093945;28;20433;-70
2021/12/19 02:04:34;;;;;;;17.93;10.60;;;;;;;2.07;87.85;100124.13;5094497;28;20437;-70
2021/12/19 02:07:01;;;;;;;16.03;11.40;;;;;;;2.04;89.08;100125.22;5094699;28;20441;-70
2021/12/19 02:09:30;;;;;;;14.83;10.97;;;;;;;2.08;89.16;100123.22;5094463;28;20429;-70
2021/12/19 02:11:57;;;;;;;15.67;11.47;;;;;;;2.06;88.67;100119.88;5093443;28;20861;-70
2021/12/19 02:14:24;;;;;;;11.63;9.57;;;;;;;2.07;88.17;100114.50;5094590;28;20888;-70
2021/12/19 02:16:50;;;;;;;10.43;9.27;;;;;;;2.08;88.36;100113.53;5093685;28;20440;-70
2021/12/19 02:19:17;;;;;;;11.43;9.47;;;;;;;2.11;87.87;100115.91;5093843;28;20468;-70
2021/12/19 02:21:45;;;;;;;9.90;8.90;;;;;;;2.12;87.82;100107.09;5093280;28;21036;-69
2021/12/19 02:24:12;;;;;;;10.23;8.30;;;;;;;2.13;87.40;100108.78;5093611;28;20441;-70
2021/12/19 02:26:40;;;;;;;8.73;7.80;;;;;;;2.14;87.29;100113.03;5093994;28;20472;-70
2021/12/19 02:29:07;;;;;;;8.17;7.47;;;;;;;2.18;86.60;100106.59;5093459;28;20445;-70
2021/12/19 02:31:34;;;;;;;7.80;7.17;;;;;;;2.12;86.18;100086.13;5093102;28;20941;-70
2021/12/19 02:34:05;;;;;;;7.73;7.13;;;;;;;1.97;86.02;100097.91;5093583;28;20558;-70
2021/12/19 02:36:47;;;;;;;7.17;6.57;;;;;;;1.79;86.50;100086.31;5093076;28;20933;-70
2021/12/19 02:39:37;;;;;;;7.47;6.77;;;;;;;1.73;86.95;100089.44;5093260;28;20999;-70
2021/12/19 02:50:20;;;;;;;6.80;6.30;;;;;;;1.65;86.71;100073.53;5093489;28;20458;-69
2021/12/19 02:52:48;;;;;;;7.27;6.70;;;;;;;1.70;86.98;100068.75;5093035;28;20441;-70
2021/12/19 02:55:18;;;;;;;7.47;6.93;;;;;;;1.73;86.69;100063.25;5092989;28;20513;-70
2021/12/19 02:57:45;;;;;;;7.57;6.53;;;;;;;1.80;86.74;100053.91;5093228;28;20437;-69
2021/12/19 03:00:16;;;;;;;7.03;6.53;;;;;;;1.91;86.65;100053.88;5092561;28;20522;-70
2021/12/19 03:02:43;;;;;;;7.63;6.97;;;;;;;1.90;85.66;100060.06;5092596;28;20437;-69
2021/12/19 03:05:10;;;;;;;6.80;6.30;;;;;;;1.91;85.66;100064.34;5093657;28;20541;-70
2021/12/19 03:07:40;;;;;;;6.20;5.70;;;;;;;1.85;85.66;100062.25;5093090;28;20437;-69
2021/12/19 03:10:32;;;;;;;6.27;5.87;;;;;;;1.83;85.22;100061.53;5092642;28;20425;-70
2021/12/19 03:13:09;;;;;;;6.40;6.00;;;;;;;1.83;84.83;100058.91;5093072;28;20442;-69
2021/12/19 03:18:25;;;;;;;6.93;6.33;;;;;;;1.71;85.90;100062.53;5092993;28;20405;-70
2021/12/19 03:20:52;;;;;;;8.43;7.73;;;;;;;1.71;85.34;100064.34;5092308;28;20866;-70
2021/12/19 03:23:18;;;;;;;6.70;6.13;;;;;;;1.72;85.82;100066.81;5092240;28;20441;-70
2021/12/19 03:25:45;;;;;;;6.50;6.00;;;;;;;1.61;85.90;100063.41;5092583;28;20594;-70
2021/12/19 03:28:15;;;;;;;6.63;6.13;;;;;;;1.63;86.12;100064.13;5092247;28;20491;-70
2021/12/19 03:30:45;;;;;;;6.30;5.80;;;;;;;1.64;85.67;100058.78;5092165;28;20871;-69
2021/12/19 03:33:12;;;;;;;6.73;6.20;;;;;;;1.73;85.00;100052.78;5093384;28;20794;-70
2021/12/19 03:35:40;;;;;;;6.67;6.17;;;;;;;1.71;84.51;100057.31;5092517;28;20956;-69
2021/12/19 03:38:08;;;;;;;7.00;6.33;;;;;;;1.72;85.01;100047.66;5092919;28;20494;-70
2021/12/19 03:40:37;;;;;;;6.80;6.30;;;;;;;1.66;85.28;100046.38;5092312;28;20468;-70
2021/12/19 03:43:07;;;;;;;5.87;5.37;;;;;;;1.78;84.83;100042.75;5092351;28;20907;-70
2021/12/19 03:45:36;;;;;;;7.37;6.87;;;;;;;1.79;84.13;100046.22;5093141;28;20437;-69
2021/12/19 03:48:05;;;;;;;6.60;6.00;;;;;;;1.74;84.52;100043.13;5091941;28;20873;-70
2021/12/19 03:50:33;;;;;;;6.13;5.73;;;;;;;1.73;84.35;100039.69;5092620;28;20494;-69
2021/12/19 03:53:01;;;;;;;6.40;5.97;;;;;;;1.84;83.49;100047.47;5092230;28;20441;-70
2021/12/19 03:55:28;;;;;;;6.70;6.20;;;;;;;1.99;84.14;100043.59;5092443;28;20470;-70
2021/12/19 03:57:57;;;;;;;6.37;5.87;;;;;;;2.07;83.60;100029.81;5092726;28;20437;-69
2021/12/19 04:00:26;;;;;;;6.17;5.60;;;;;;;2.00;82.61;100034.75;5091720;28;21004;-70
2021/12/19 04:02:56;;;;;;;6.80;6.17;;;;;;;1.95;82.59;100028.22;5091835;28;20956;-70
2021/12/19 04:05:23;;;;;;;8.87;5.93;;;;;;;1.92;82.85;100026.72;5092079;28;20433;-70
2021/12/19 04:07:50;;;;;;;6.57;6.10;;;;;;;1.92;83.25;100024.09;5091794;28;20437;-70
2021/12/19 04:10:17;;;;;;;8.03;6.23;;;;;;;1.97;83.36;100026.34;5091774;28;20864;-70
2021/12/19 04:12:44;;;;;;;6.60;6.20;;;;;;;1.92;82.86;100026.72;5091754;28;20498;-69
2021/12/19 04:15:11;;;;;;;6.90;6.40;;;;;;;1.85;82.93;100022.97;5092002;28;20804;-69
2021/12/19 04:17:39;;;;;;;6.03;5.63;;;;;;;1.90;83.41;100023.41;5096207;28;20444;-70
2021/12/19 04:20:09;;;;;;;6.40;5.90;;;;;;;1.78;83.80;100021.81;5112808;28;20474;-70
2021/12/19 04:22:35;;;;;;;8.93;7.03;;;;;;;1.81;83.29;100024.19;5111934;28;20493;-70
2021/12/19 04:25:02;;;;;;;7.97;7.27;;;;;;;1.86;83.71;100026.38;5111904;28;20466;-70
2021/12/19 04:27:30;;;;;;;7.67;6.87;;;;;;;1.83;82.91;100019.63;5113445;28;20476;-70
2021/12/19 04:29:57;;;;;;;8.00;7.27;;;;;;;1.78;83.26;100024.44;5112511;28;20450;-70
2021/12/19 04:32:30;;;;;;;6.53;6.00;;;;;;;1.84;83.62;100039.59;5111861;28;20493;-69
2021/12/19 04:34:57;;;;;;;6.63;6.13;;;;;;;1.86;83.20;100036.88;5111952;28;20938;-69
2021/12/19 04:37:48;;;;;;;9.27;8.20;;;;;;;1.82;82.74;100031.06;5112152;28;20435;-69
2021/12/19 04:40:17;;;;;;;6.60;6.20;;;;;;;1.81;82.91;100028.56;5111928;28;20878;-69
2021/12/19 04:51:23;;;;;;;7.00;6.50;;;;;;;1.85;83.44;100017.72;5116253;28;20522;-70
2021/12/19 04:54:03;;;;;;;6.87;6.27;;;;;;;1.96;82.75;100028.13;5115455;28;20434;-70
2021/12/19 04:56:41;;;;;;;6.80;6.20;;;;;;;2.03;81.55;100021.41;5116559;28;20428;-70
2021/12/19 04:59:36;;;;;;;5.97;5.57;;;;;;;1.93;82.46;100017.06;5115279;28;20950;-70
2021/12/19 05:02:12;;;;;;;6.27;5.87;;;;;;;1.80;82.90;100012.00;5115430;28;20439;-70
2021/12/19 05:15:42;;;;;;;6.90;6.40;;;;;;;1.73;83.50;100008.28;5115492;28;20396;-70
2021/12/19 05:18:09;;;;;;;6.67;6.17;;;;;;;1.65;83.30;100002.84;5116129;28;20429;-70
2021/12/19 05:20:39;;;;;;;7.80;7.27;;;;;;;1.69;83.70;100006.03;5115420;28;20480;-70
2021/12/19 05:23:12;;;;;;;6.70;6.13;;;;;;;1.67;83.50;100005.34;5114934;28;20442;-70
2021/12/19 05:25:40;;;;;;;6.97;6.50;;;;;;;1.66;83.10;100009.72;5113541;28;20506;-70
2021/12/19 05:28:07;;;;;;;6.70;6.27;;;;;;;1.60;83.18;100005.00;5114279;28;20420;-70
2021/12/19 05:30:33;;;;;;;5.67;5.27;;;;;;;1.53;83.37;99998.63;5113662;28;20940;-70
2021/12/19 05:33:01;;;;;;;6.23;5.73;;;;;;;1.53;83.55;99993.38;5114627;28;20502;-70
2021/12/19 05:35:48;;;;;;;6.70;5.90;;;;;;;1.55;83.02;100001.94;5114591;28;20447;-69
2021/12/19 05:45:11;;;;;;;6.37;5.97;;;;;;;1.48;83.56;99989.47;5114277;28;20935;-72
2021/12/19 05:47:01;;;;;;;6.63;6.17;;;;;;;1.39;83.67;99993.66;5114606;28;20445;-73
2021/12/19 05:49:28;;;;;;;6.33;5.73;;;;;;;1.34;84.07;99992.41;5114392;28;20955;-72
2021/12/19 05:51:55;;;;;;;8.17;6.77;;;;;;;1.34;83.98;99998.47;5114859;28;20436;-76
2021/12/19 05:54:21;;;;;;;7.80;7.30;;;;;;;1.28;84.42;99993.75;5114200;28;20440;-71
2021/12/19 05:56:51;;;;;;;7.53;6.80;;;;;;;1.29;84.07;99995.41;5115120;28;20489;-72
2021/12/19 05:59:18;;;;;;;7.07;6.43;;;;;;;1.34;83.77;99988.00;5113961;28;20436;-73
2021/12/19 06:01:46;;;;;;;7.00;6.43;;;;;;;1.43;83.55;99992.47;5114400;28;20505;-68
2021/12/19 06:04:13;;;;;;;7.80;7.33;;;;;;;1.48;83.36;99994.72;5113914;28;20944;-70
2021/12/19 06:06:40;;;;;;;6.57;6.17;;;;;;;1.59;82.54;99992.88;5114276;28;20445;-69
2021/12/19 06:09:06;;;;;;;6.67;6.23;;;;;;;1.55;82.75;99993.25;5113824;28;20811;-71
2021/12/19 06:11:33;;;;;;;7.80;7.10;;;;;;;1.62;82.29;99984.75;5115031;28;20501;-71
2021/12/19 06:14:01;;;;;;;7.33;6.83;;;;;;;1.71;82.05;99994.47;5114098;28;20440;-71
2021/12/19 06:16:28;;;;;;;6.33;5.90;;;;;;;1.82;81.26;99989.16;5114986;28;20436;-77
2021/12/19 06:18:55;;;;;;;7.00;6.40;;;;;;;1.90;81.59;99981.50;5113680;28;20501;-74
2021/12/19 06:21:22;;;;;;;7.60;7.00;;;;;;;2.04;80.82;99985.56;5113984;28;20528;-74
2021/12/19 06:23:48;;;;;;;6.97;6.37;;;;;;;2.14;79.53;99984.66;5113722;28;20436;-71
2021/12/19 06:26:15;;;;;;;8.23;7.40;;;;;;;2.32;78.46;99988.31;5114320;28;20468;-74
2021/12/19 06:28:42;;;;;;;6.60;6.07;;;;;;;2.44;78.67;99982.00;5113927;28;20436;-71
2021/12/19 06:31:10;;;;;;;7.33;6.63;;;;;;;2.58;77.80;99989.50;5114190;28;20444;-71
2021/12/19 06:33:37;;;;;;;7.43;6.93;;;;;;;2.72;77.27;99991.75;5113385;28;20496;-70
2021/12/19 06:36:04;;;;;;;6.80;6.30;;;;;;;2.91;76.37;99981.31;5113280;28;20477;-69
2021/12/19 06:38:31;;;;;;;6.33;5.87;;;;;;;3.14;75.30;99980.09;5113708;28;20432;-73
2021/12/19 06:40:58;;;;;;;6.30;5.73;;;;;;;3.14;74.29;99977.47;5114081;28;20566;-72
2021/12/19 06:43:26;;;;;;;5.90;5.50;;;;;;;3.27;74.77;99969.31;5113199;28;20444;-73
2021/12/19 06:45:55;;;;;;;7.23;6.40;;;;;;;3.33;74.48;99969.59;5113201;28;21008;-72
2021/12/19 06:48:24;;;;;;;6.27;5.70;;;;;;;3.48;74.08;99965.56;5110950;28;20448;-73
2021/12/19 06:50:51;;;;;;;7.17;6.57;;;;;;;3.61;73.63;99965.28;5112415;28;20489;-72
2021/12/19 06:53:18;;;;;;;6.50;5.80;;;;;;;3.63;71.98;99958.91;5110968;28;20444;-73
2021/12/19 06:55:45;;;;;;;6.23;5.73;;;;;;;3.69;72.67;99958.38;5113541;28;20486;-72
2021/12/19 06:58:12;;;;;;;6.20;5.80;;;;;;;3.99;72.69;99955.53;5113378;28;20444;-74
2021/12/19 07:00:39;;;;;;;6.40;5.80;;;;;;;4.20;72.06;99958.75;5113629;28;20808;-74
2021/12/19 07:03:05;;;;;;;6.73;6.17;;;;;;;4.28;70.86;99944.88;5106432;28;20190;-72
2021/12/19 07:05:34;;;;;;;7.47;6.80;;;;;;;4.38;70.27;99954.38;5112573;28;21011;-73
2021/12/19 07:08:00;;;;;;;11.37;8.33;;;;;;;4.38;69.78;99954.38;5113135;28;20222;-70
2021/12/19 07:10:27;;;;;;;7.43;6.83;;;;;;;4.51;69.51;99957.53;5112247;28;20198;-74
2021/12/19 07:12:54;;;;;;;8.30;7.60;;;;;;;4.66;69.21;99945.50;5112468;28;20730;-73
2021/12/19 07:15:24;;;;;;;8.77;8.07;;;;;;;4.77;69.05;99953.22;5110926;28;20358;-74
2021/12/19 07:17:52;;;;;;;7.93;7.13;;;;;;;4.74;67.95;99950.88;5090333;28;20183;-74
2021/12/19 07:20:19;;;;;;;8.43;7.77;;;;;;;4.66;68.29;99956.03;5104987;28;20221;-73
2021/12/19 07:22:47;;;;;;;6.43;5.97;;;;;;;4.85;68.27;99953.31;5110365;28;20247;-73
2021/12/19 07:25:14;;;;;;;5.60;5.23;;;;;;;4.93;67.10;99963.91;5111841;28;20271;-72
2021/12/19 07:27:41;;;;;;;5.47;5.17;;;;;;;4.92;66.72;99959.63;5111846;28;20225;-74
2021/12/19 07:30:10;;;;;;;6.07;5.67;;;;;;;5.06;67.00;99958.28;5110930;28;20497;-72
2021/12/19 07:32:38;;;;;;;5.40;5.00;;;;;;;5.27;66.37;99966.72;5110013;28;20194;-73
2021/12/19 07:35:07;;;;;;;4.97;4.67;;;;;;;5.36;65.15;99950.81;5110320;28;20194;-73
2021/12/19 07:37:36;;;;;;;6.10;5.60;;;;;;;5.54;65.09;99963.97;5110089;28;20195;-74
2021/12/19 07:40:13;;;;;;;6.53;6.03;;;;;;;6.01;65.33;99965.34;5110157;28;20313;-73
2021/12/19 07:42:40;;;;;;;6.23;5.83;;;;;;;5.88;63.79;99961.47;5110370;28;20178;-73
2021/12/19 07:45:07;;;;;;;6.37;5.87;;;;;;;5.92;63.58;99957.53;5111690;28;20190;-73
2021/12/19 07:47:34;;;;;;;5.50;5.10;;;;;;;5.90;63.45;99948.94;5113227;28;20196;-73
2021/12/19 07:50:00;;;;;;;6.30;5.70;;;;;;;5.90;63.18;99951.56;5112119;28;20195;-73
2021/12/19 07:52:27;;;;;;;4.90;4.60;;;;;;;5.76;63.79;99955.59;5112477;28;20191;-73
2021/12/19 07:54:54;;;;;;;6.23;5.83;;;;;;;5.90;63.50;99943.66;5112279;28;20615;-72
2021/12/19 07:57:22;;;;;;;6.30;5.53;;;;;;;5.98;63.09;99946.34;5112276;28;20186;-73
2021/12/19 07:59:49;;;;;;;5.67;5.17;;;;;;;6.14;62.32;99949.09;5111921;28;20195;-72
2021/12/19 08:02:16;;;;;;;4.67;4.27;;;;;;;6.13;61.95;99944.81;5112569;28;20195;-73
2021/12/19 08:04:42;;;;;;;6.60;4.50;;;;;;;6.19;61.74;99938.88;5111979;28;20195;-73
2021/12/19 08:07:11;;;;;;;4.73;4.33;;;;;;;6.32;61.10;99934.03;5111775;28;20191;-73
2021/12/19 08:09:47;;;;;;;4.57;4.27;;;;;;;6.27;61.14;99925.75;5111540;28;20257;-73
2021/12/19 08:12:13;;;;;;;4.70;4.40;;;;;;;6.10;60.75;99929.28;5112916;28;20190;-72
2021/12/19 08:14:41;;;;;;;4.77;4.47;;;;;;;6.27;60.09;99936.28;5111778;28;20732;-72
2021/12/19 08:17:08;;;;;;;4.73;4.43;;;;;;;6.38;60.92;99922.84;5111645;28;20247;-73
2021/12/19 08:19:35;;;;;;;5.23;4.93;;;;;;;6.35;59.93;99923.97;5111802;28;20187;-73
2021/12/19 08:22:01;;;;;;;5.53;5.13;;;;;;;6.58;60.37;99914.50;5115136;28;20310;-73
2021/12/19 08:24:28;;;;;;;5.43;5.03;;;;;;;6.33;60.04;99910.09;5115608;28;20259;-73
2021/12/19 08:26:55;;;;;;;4.73;4.43;;;;;;;6.32;58.94;99912.94;5116253;28;20219;-72
2021/12/19 08:29:21;;;;;;;5.37;4.97;;;;;;;6.29;60.46;99907.97;5115571;28;20665;-73
2021/12/19 08:31:50;;;;;;;5.37;5.07;;;;;;;6.57;60.97;99904.91;5115535;28;20190;-73
2021/12/19 08:34:16;;;;;;;4.60;4.40;;;;;;;6.60;60.52;99903.75;5115056;28;20240;-73
2021/12/19 08:36:43;;;;;;;5.23;4.87;;;;;;;6.75;59.60;99896.88;5116173;28;20198;-72
2021/12/19 08:39:11;;;;;;;6.33;5.40;;;;;;;6.73;59.11;99894.41;5115546;28;20191;-72
2021/12/19 08:41:38;;;;;;;5.30;5.00;;;;;;;6.88;59.09;99884.88;5115378;28;20218;-72
2021/12/19 08:44:05;;;;;;;5.90;5.50;;;;;;;7.18;59.01;99886.06;5115656;28;20247;-72
2021/12/19 08:46:32;;;;;;;5.43;5.03;;;;;;;7.20;58.31;99884.91;5114708;28;20246;-72
2021/12/19 08:49:01;;;;;;;6.07;5.60;;;;;;;7.28;57.99;99876.16;5095382;28;20267;-72
2021/12/19 08:51:27;;;;;;;5.20;4.90;;;;;;;7.31;56.17;99884.56;5095601;28;20195;-72
2021/12/19 08:53:54;;;;;;;10.13;8.47;;;;;;;7.07;56.95;99881.09;5094621;28;20195;-71
2021/12/19 08:56:21;;;;;;;20.73;12.97;;;;;;;7.03;57.09;99871.84;5094984;28;20262;-72
2021/12/19 08:58:48;;;;;;;9.57;8.00;;;;;;;6.96;57.21;99869.03;5094553;28;20742;-71
2021/12/19 09:01:15;;;;;;;5.90;5.40;;;;;;;7.13;57.54;99861.94;5094775;28;20215;-72
2021/12/19 09:03:42;;;;;;;6.17;5.77;;;;;;;7.15;57.75;99860.78;5094702;28;20281;-72
2021/12/19 09:06:10;;;;;;;6.60;6.10;;;;;;;7.22;57.31;99853.03;5095108;28;20191;-72
2021/12/19 09:08:37;;;;;;;5.83;5.43;;;;;;;6.93;58.37;99852.69;5095209;28;20194;-72
2021/12/19 09:11:03;;;;;;;5.73;5.37;;;;;;;7.00;58.44;99851.88;5094269;28;20202;-71
2021/12/19 09:13:30;;;;;;;4.93;4.63;;;;;;;6.75;58.76;99846.72;5094245;28;20657;-72
2021/12/19 09:15:57;;;;;;;5.73;5.30;;;;;;;6.92;58.75;99836.03;5094658;28;20187;-71
2021/12/19 09:18:24;;;;;;;5.63;5.33;;;;;;;7.16;57.63;99829.91;5094496;28;20195;-72
2021/12/19 09:20:51;;;;;;;6.03;5.63;;;;;;;7.35;56.99;99832.22;5094875;28;20696;-69
2021/12/19 09:23:19;;;;;;;5.47;5.07;;;;;;;7.27;57.39;99819.03;5094251;28;20256;-71
2021/12/19 09:25:46;;;;;;;7.50;6.80;;;;;;;7.36;57.29;99815.38;5094812;28;20286;-76
2021/12/19 09:28:13;;;;;;;8.37;7.40;;;;;;;7.48;58.13;99804.25;5094410;28;20258;-71
2021/12/19 09:30:41;;;;;;;8.33;7.50;;;;;;;7.20;57.66;99800.38;5094260;28;20191;-71
2021/12/19 09:33:07;;;;;;;7.73;7.03;;;;;;;6.88;56.94;99796.91;5093138;28;20199;-72
2021/12/19 09:35:34;;;;;;;11.17;10.07;;;;;;;6.72;58.33;99788.97;5093983;28;20188;-71
2021/12/19 09:38:02;;;;;;;11.43;10.20;;;;;;;6.77;58.86;99778.78;5094067;28;20200;-73
2021/12/19 09:40:35;;;;;;;8.77;7.13;;;;;;;6.94;58.81;99772.50;5093297;28;20225;-69
2021/12/19 09:43:04;;;;;;;8.60;7.60;;;;;;;6.81;59.31;99772.19;5094512;28;20194;-70
2021/12/19 09:45:33;;;;;;;6.27;5.77;;;;;;;6.92;58.24;99763.91;5093311;28;20229;-73
2021/12/19 09:48:00;;;;;;;6.00;5.60;;;;;;;6.98;58.55;99760.63;5093522;28;20196;-76
2021/12/19 09:50:28;;;;;;;5.33;4.93;;;;;;;7.07;57.74;99760.41;5093844;28;20195;-72
2021/12/19 09:52:54;;;;;;;5.63;5.10;;;;;;;6.93;58.07;99747.06;5093655;28;20198;-75
2021/12/19 09:55:22;;;;;;;7.30;6.27;;;;;;;6.98;58.84;99744.78;5093592;28;20192;-69
2021/12/19 09:57:52;;;;;;;6.40;5.80;;;;;;;7.08;59.49;99732.19;5093465;28;20248;-72
2021/12/19 10:00:19;;;;;;;5.70;5.10;;;;;;;6.92;58.32;99727.78;5093642;28;20201;-74
2021/12/19 10:02:46;;;;;;;5.27;4.93;;;;;;;6.97;58.14;99729.91;5093788;28;20223;-74
2021/12/19 10:05:22;;;;;;;6.97;5.83;;;;;;;7.05;59.62;99716.69;5093351;28;20257;-72
2021/12/19 10:07:51;;;;;;;5.37;4.97;;;;;;;6.94;58.76;99719.69;5094132;28;20187;-73
2021/12/19 10:10:27;;;;;;;7.37;6.73;;;;;;;7.11;59.55;99708.09;5093015;28;20759;-74
2021/12/19 10:12:58;;;;;;;7.50;6.70;;;;;;;7.27;56.80;99714.16;5093963;28;20218;-75
2021/12/19 10:15:31;;;;;;;7.00;6.40;;;;;;;7.22;59.55;99697.19;5093307;28;20643;-76
2021/12/19 10:18:04;;;;;;;6.77;6.23;;;;;;;7.27;59.58;99705.41;5093071;28;20723;-73
2021/12/19 10:20:46;;;;;;;11.57;5.77;;;;;;;7.47;59.05;99701.38;5093480;28;20193;-73
2021/12/19 10:23:14;;;;;;;5.50;5.20;;;;;;;7.38;57.39;99699.75;5093964;28;20189;-79
2021/12/19 10:25:41;;;;;;;6.30;5.80;;;;;;;7.41;57.53;99696.78;5092727;28;20230;-74
2021/12/19 10:28:11;;;;;;;6.90;6.30;;;;;;;7.27;56.88;99700.13;5093534;28;20193;-75
2021/12/19 10:30:40;;;;;;;6.33;5.77;;;;;;;7.40;57.93;99687.19;5093023;28;20195;-74
2021/12/19 10:33:08;;;;;;;9.27;6.77;;;;;;;7.33;58.39;99665.09;5093188;28;20298;-74
2021/12/19 10:35:39;;;;;;;7.17;6.57;;;;;;;7.50;56.35;99686.00;5093352;28;20254;-78
2021/12/19 10:38:08;;;;;;;5.87;5.37;;;;;;;7.40;56.57;99685.41;5093125;28;20581;-73
2021/12/19 10:40:34;;;;;;;6.00;5.50;;;;;;;7.43;56.30;99679.75;5092715;28;20193;-75
2021/12/19 10:43:04;;;;;;;6.53;5.93;;;;;;;7.53;56.91;99675.09;5092675;28;20245;-75
2021/12/19 10:45:34;;;;;;;8.50;7.17;;;;;;;7.55;55.55;99680.22;5091466;28;20280;-74
2021/12/19 10:48:27;;;;;;;13.43;7.50;;;;;;;7.33;55.93;99668.56;5092867;28;20241;-75
2021/12/19 10:51:04;;;;;;;12.40;9.97;;;;;;;7.21;56.53;99663.81;5073907;28;20191;-71
2021/12/19 10:53:35;;;;;;;10.20;8.83;;;;;;;7.15;57.18;99657.38;5088303;28;20197;-74
2021/12/19 10:56:05;;;;;;;7.67;6.87;;;;;;;7.09;57.23;99649.31;5091722;28;20558;-72
2021/12/19 10:58:44;;;;;;;8.80;6.10;;;;;;;7.06;57.59;99637.28;5091882;28;20236;-75
2021/12/19 11:01:22;;;;;;;9.60;6.60;;;;;;;7.32;57.93;99629.94;5090113;28;20199;-76
2021/12/19 11:03:54;;;;;;;9.03;7.93;;;;;;;7.45;57.92;99618.81;5090374;28;20589;-74
2021/12/19 11:06:28;;;;;;;6.40;6.00;;;;;;;7.39;56.66;99624.78;5091324;28;20188;-79
2021/12/19 11:08:56;;;;;;;7.47;6.73;;;;;;;7.16;57.52;99614.16;5090940;28;20550;-76
2021/12/19 11:11:47;;;;;;;8.03;7.40;;;;;;;7.28;58.00;99601.38;5091900;28;20240;-74
2021/12/19 11:14:16;;;;;;;12.87;7.57;;;;;;;7.40;58.72;99602.66;5084616;28;20198;-76
2021/12/19 11:16:45;;;;;;;7.10;6.43;;;;;;;7.20;58.38;99589.03;5089540;28;20199;-75
2021/12/19 11:19:12;;;;;;;8.43;7.27;;;;;;;7.26;58.42;99598.09;5087413;28;20198;-76
2021/12/19 11:21:39;;;;;;;7.30;6.80;;;;;;;7.15;58.90;99585.28;5089555;28;20219;-73
2021/12/19 11:24:09;;;;;;;8.13;7.33;;;;;;;7.35;58.89;99575.94;5088910;28;20191;-74
2021/12/19 11:26:37;;;;;;;8.83;7.73;;;;;;;7.40;58.71;99573.56;5087965;28;20211;-71
2021/12/19 11:29:04;;;;;;;14.07;8.53;;;;;;;7.39;57.03;99562.19;5090102;28;20218;-74
2021/12/19 11:31:32;;;;;;;7.37;6.73;;;;;;;7.43;56.83;99562.66;5089329;28;20191;-72
2021/12/19 11:34:16;;;;;;;10.17;8.70;;;;;;;7.63;57.26;99558.59;5089317;28;20197;-77
2021/12/19 11:36:47;;;;;;;7.37;6.67;;;;;;;7.66;56.77;99559.03;5087976;28;20183;-75
2021/12/19 11:39:15;;;;;;;7.60;7.00;;;;;;;7.62;56.09;99551.63;5085859;28;20191;-78
2021/12/19 11:42:01;;;;;;;8.07;6.57;;;;;;;7.63;57.31;99553.28;5090755;28;20223;-74
2021/12/19 11:44:33;;;;;;;7.10;6.47;;;;;;;7.72;56.39;99536.38;5091235;28;20187;-75
2021/12/19 11:47:05;;;;;;;6.57;6.17;;;;;;;7.56;55.53;99537.28;5091254;28;20235;-78
2021/12/19 11:49:33;;;;;;;6.27;5.77;;;;;;;7.29;55.68;99526.41;5091608;28;20183;-72
2021/12/19 11:52:25;;;;;;;7.20;6.37;;;;;;;7.37;56.57;99521.06;5090228;28;20195;-74
2021/12/19 11:55:32;;;;;;;6.87;6.33;;;;;;;7.23;56.65;99517.34;5089342;28;20662;-75
2021/12/19 11:58:33;;;;;;;7.40;6.63;;;;;;;7.22;56.82;99504.34;5094080;28;20197;-75
2021/12/19 12:01:23;;;;;;;7.43;6.73;;;;;;;7.32;58.23;99499.66;5094117;28;20260;-76
2021/12/19 12:03:53;;;;;;;7.47;6.40;;;;;;;7.18;56.53;99501.22;5094531;28;20190;-76
2021/12/19 12:06:29;;;;;;;6.37;5.77;;;;;;;7.14;56.02;99489.34;5073370;28;20204;-76
2021/12/19 12:09:25;;;;;;;10.80;9.10;;;;;;;7.22;57.07;99488.50;5094457;28;20672;-78
2021/12/19 12:12:15;;;;;;;6.43;5.93;;;;;;;7.26;57.26;99479.22;5095616;28;20187;-74
2021/12/19 12:14:50;;;;;;;6.37;5.73;;;;;;;7.45;55.72;99478.75;5105574;28;20612;-74
2021/12/19 12:17:24;;;;;;;9.37;7.87;;;;;;;7.55;55.99;99482.00;5092821;28;20195;-79
2021/12/19 12:19:56;;;;;;;7.97;6.93;;;;;;;7.61;55.82;99473.34;5093194;28;20190;-78
2021/12/19 12:22:34;;;;;;;6.10;5.60;;;;;;;7.56;55.30;99473.06;5094198;28;20222;-74
2021/12/19 12:25:20;;;;;;;5.87;5.47;;;;;;;7.45;54.95;99476.09;5096301;28;20237;-71
2021/12/19 12:27:52;;;;;;;6.10;5.50;;;;;;;7.19;55.84;99470.34;5095436;28;20192;-72